Time;durP1;ratioP1;P1;durP2;ratioP2;P2;SDS_P1;SDS_P2;PMS_P1;PMS_P2;Temp;Humidity;BMP_temperature;BMP_pressure;BME280_temperature;BME280_humidity;BME280_pressure;Samples;Min_cycle;Max_cycle;Signal;HPM_P1;HPM_P2
2022/08/20 00:01:50;;;;;;;1.35;0.60;;;23.00;99.90;;;;;;4995920;28;20183;-68
2022/08/20 00:04:20;;;;;;;1.17;0.90;;;23.00;99.90;;;;;;4995270;28;20469;-68
2022/08/20 00:06:47;;;;;;;1.00;0.90;;;23.00;99.90;;;;;;4999305;28;20192;-68
2022/08/20 00:09:13;;;;;;;0.88;0.70;;;23.00;99.90;;;;;;4996773;28;20203;-77
2022/08/20 00:11:41;;;;;;;0.80;0.70;;;23.00;99.90;;;;;;5029399;23;20228;-79
2022/08/20 00:14:12;;;;;;;0.77;0.73;;;23.00;99.90;;;;;;4973271;28;20186;-78
2022/08/20 00:16:38;;;;;;;0.68;0.60;;;23.00;99.90;;;;;;5008413;28;20203;-77
2022/08/20 00:19:07;;;;;;;1.00;0.88;;;23.00;99.90;;;;;;4976972;28;20183;-76
2022/08/20 00:21:35;;;;;;;0.88;0.70;;;23.00;99.90;;;;;;4978012;28;20230;-78
2022/08/20 00:24:01;;;;;;;1.33;0.90;;;23.00;99.90;;;;;;4976856;28;20230;-77
2022/08/20 00:26:36;;;;;;;1.92;0.90;;;23.10;99.90;;;;;;4992789;28;20203;-76
2022/08/20 00:29:05;;;;;;;1.45;0.90;;;23.10;99.90;;;;;;4977159;28;20168;-76
2022/08/20 00:31:33;;;;;;;1.63;1.20;;;23.10;99.90;;;;;;4979789;28;20204;-75
2022/08/20 00:34:04;;;;;;;8.80;1.35;;;23.10;99.90;;;;;;4973235;28;20270;-77
2022/08/20 00:36:30;;;;;;;1.63;1.20;;;23.10;99.90;;;;;;4978936;28;20180;-75
2022/08/20 00:38:56;;;;;;;1.63;1.25;;;23.00;99.90;;;;;;4988568;28;20263;-77
2022/08/20 00:41:25;;;;;;;1.90;1.30;;;23.00;99.90;;;;;;4971326;28;20185;-77
2022/08/20 00:44:20;;;;;;;1.40;1.20;;;22.90;99.90;;;;;;4990437;28;20179;-76
2022/08/20 00:46:49;;;;;;;1.98;1.30;;;22.90;99.90;;;;;;4976953;28;20200;-76
2022/08/20 00:49:20;;;;;;;1.73;1.33;;;22.80;99.90;;;;;;4993671;28;20187;-78
2022/08/20 00:51:56;;;;;;;2.05;1.15;;;22.70;99.90;;;;;;4993704;28;20189;-75
2022/08/20 00:54:37;;;;;;;1.55;1.10;;;22.60;99.90;;;;;;4987853;28;20272;-74
2022/08/20 00:57:20;;;;;;;1.95;1.10;;;22.50;99.90;;;;;;4988877;28;20188;-74
2022/08/20 00:59:50;;;;;;;1.33;1.17;;;22.40;99.90;;;;;;4978935;28;20199;-73
2022/08/20 01:02:17;;;;;;;1.20;1.05;;;22.30;99.90;;;;;;4963634;28;20187;-74
2022/08/20 01:04:53;;;;;;;1.27;1.17;;;22.20;99.90;;;;;;4979430;28;20176;-73
2022/08/20 01:07:31;;;;;;;3.50;1.15;;;22.20;99.90;;;;;;4995029;28;20207;-73
2022/08/20 01:10:00;;;;;;;1.70;1.00;;;22.10;99.90;;;;;;4970947;28;20255;-75
2022/08/20 01:12:31;;;;;;;2.08;1.10;;;22.00;99.90;;;;;;4982137;28;20192;-74
2022/08/20 01:15:02;;;;;;;1.80;1.10;;;22.00;99.90;;;;;;4995634;28;20204;-75
2022/08/20 01:17:31;;;;;;;1.02;0.93;;;21.90;99.90;;;;;;4990655;28;20172;-75
2022/08/20 01:20:38;;;;;;;4.57;1.10;;;21.90;99.90;;;;;;4966375;28;20176;-75
2022/08/20 01:23:28;;;;;;;1.25;0.90;;;21.80;99.90;;;;;;4924352;29;20279;-75
2022/08/20 01:26:12;;;;;;;1.08;0.80;;;21.80;99.90;;;;;;4924155;29;20292;-75
2022/08/20 01:28:46;;;;;;;2.17;0.90;;;21.70;99.90;;;;;;4951812;28;20270;-74
2022/08/20 01:31:15;;;;;;;1.27;0.93;;;21.70;99.90;;;;;;4980957;28;20173;-74
2022/08/20 01:33:47;;;;;;;1.25;0.80;;;21.60;99.90;;;;;;4977050;28;20211;-74
2022/08/20 01:36:18;;;;;;;1.10;0.80;;;21.60;99.90;;;;;;4993459;28;20176;-74
2022/08/20 01:38:44;;;;;;;1.88;0.93;;;21.60;99.90;;;;;;4971078;28;20172;-74
2022/08/20 01:41:34;;;;;;;1.00;0.70;;;21.60;99.90;;;;;;4975667;28;20207;-74
2022/08/20 01:44:02;;;;;;;1.02;0.80;;;21.50;99.90;;;;;;4974587;28;20168;-75
2022/08/20 01:46:31;;;;;;;1.00;0.80;;;21.50;99.90;;;;;;4993733;28;20271;-74
2022/08/20 01:49:12;;;;;;;1.05;0.90;;;21.40;99.90;;;;;;4977040;28;20179;-74
2022/08/20 01:51:38;;;;;;;0.70;0.70;;;21.40;99.90;;;;;;4967231;28;20212;-73
2022/08/20 01:54:05;;;;;;;1.50;0.75;;;21.40;99.90;;;;;;4977020;28;20200;-75
2022/08/20 01:56:33;;;;;;;1.52;0.95;;;21.30;99.90;;;;;;5008887;28;20171;-74
2022/08/20 01:59:06;;;;;;;2.22;0.80;;;21.30;99.90;;;;;;4989752;28;20172;-73
2022/08/20 02:01:38;;;;;;;1.35;0.90;;;21.30;99.90;;;;;;4995314;28;20211;-73
2022/08/20 02:04:10;;;;;;;0.80;0.70;;;21.30;99.90;;;;;;4999446;28;20180;-74
2022/08/20 02:06:40;;;;;;;1.20;1.00;;;21.30;99.90;;;;;;4997050;28;20206;-74
2022/08/20 02:09:07;;;;;;;1.17;0.90;;;21.30;99.90;;;;;;4996272;28;20180;-74
2022/08/20 02:11:35;;;;;;;1.60;0.90;;;21.20;99.90;;;;;;4983345;28;20230;-74
2022/08/20 02:14:05;;;;;;;1.40;1.10;;;21.20;99.90;;;;;;4978663;28;20176;-74
2022/08/20 02:16:35;;;;;;;1.08;0.90;;;21.10;99.90;;;;;;4979937;28;20251;-75
2022/08/20 02:19:11;;;;;;;1.10;0.90;;;21.10;99.90;;;;;;4996421;28;20188;-74
2022/08/20 02:21:40;;;;;;;1.27;0.98;;;21.00;99.90;;;;;;4979674;28;20207;-74
2022/08/20 02:24:09;;;;;;;1.70;1.00;;;21.00;99.90;;;;;;4984436;28;20186;-73
2022/08/20 02:26:36;;;;;;;1.17;0.80;;;21.00;99.90;;;;;;4959736;28;20285;-75
2022/08/20 02:29:10;;;;;;;1.67;0.95;;;21.00;99.90;;;;;;4977050;28;20179;-75
2022/08/20 02:31:39;;;;;;;1.50;1.00;;;21.00;99.90;;;;;;4989922;28;20200;-75
2022/08/20 02:34:13;;;;;;;0.98;0.82;;;21.00;99.90;;;;;;4996117;28;20180;-74
2022/08/20 02:36:40;;;;;;;1.38;0.85;;;21.00;99.90;;;;;;4997475;28;20180;-74
2022/08/20 02:39:09;;;;;;;1.83;1.00;;;21.00;99.90;;;;;;4976190;28;20186;-74
2022/08/20 02:41:36;;;;;;;1.45;1.08;;;21.00;99.90;;;;;;4995621;28;20212;-74
2022/08/20 02:44:04;;;;;;;0.85;0.73;;;20.90;99.90;;;;;;4980104;28;20176;-74
2022/08/20 02:46:30;;;;;;;1.40;1.10;;;20.90;99.90;;;;;;4979975;28;20204;-74
2022/08/20 02:48:57;;;;;;;1.50;1.10;;;20.90;99.90;;;;;;4962097;28;20197;-73
2022/08/20 02:51:28;;;;;;;2.25;1.13;;;20.90;99.90;;;;;;4978759;28;20243;-74
2022/08/20 02:53:56;;;;;;;1.67;1.10;;;20.90;99.90;;;;;;4995464;28;20184;-73
2022/08/20 02:56:21;;;;;;;2.60;1.20;;;20.90;99.90;;;;;;4991109;28;20184;-75
2022/08/20 02:58:49;;;;;;;1.30;1.20;;;20.90;99.90;;;;;;4990659;28;20200;-74
2022/08/20 03:01:16;;;;;;;3.60;1.15;;;20.90;99.90;;;;;;4988427;28;20202;-74
2022/08/20 03:03:46;;;;;;;2.20;1.10;;;20.90;99.90;;;;;;4988525;28;20202;-75
2022/08/20 03:06:13;;;;;;;1.55;1.17;;;21.00;99.90;;;;;;4977509;28;20207;-75
2022/08/20 03:08:42;;;;;;;1.30;1.20;;;21.00;99.90;;;;;;4996162;28;20231;-74
2022/08/20 03:11:08;;;;;;;1.83;1.33;;;21.00;99.90;;;;;;4978178;28;20212;-74
2022/08/20 03:13:38;;;;;;;2.50;1.13;;;21.00;99.90;;;;;;4966843;28;20181;-74
2022/08/20 03:16:04;;;;;;;1.42;1.30;;;21.10;99.90;;;;;;4977917;28;20194;-74
2022/08/20 03:18:35;;;;;;;1.40;1.13;;;21.10;99.90;;;;;;4978371;28;20176;-74
2022/08/20 03:21:02;;;;;;;1.30;1.10;;;21.10;99.90;;;;;;4977494;28;20207;-74
2022/08/20 03:23:28;;;;;;;1.50;1.40;;;21.10;99.90;;;;;;4993469;28;20195;-74
2022/08/20 03:25:54;;;;;;;1.20;1.10;;;21.10;99.90;;;;;;4992588;28;20284;-74
2022/08/20 03:28:20;;;;;;;1.17;1.08;;;21.10;99.90;;;;;;4978321;28;20178;-75
2022/08/20 03:30:46;;;;;;;1.83;1.10;;;21.20;99.90;;;;;;4979574;28;20172;-75
2022/08/20 03:33:12;;;;;;;1.45;1.23;;;21.20;99.90;;;;;;4977930;28;20231;-75
2022/08/20 03:35:40;;;;;;;1.42;1.05;;;21.20;99.90;;;;;;4975075;28;20188;-74
2022/08/20 03:38:13;;;;;;;1.33;1.20;;;21.20;99.90;;;;;;4978454;28;20278;-74
2022/08/20 03:40:39;;;;;;;1.75;1.23;;;21.10;99.90;;;;;;4978352;28;20274;-74
2022/08/20 03:43:09;;;;;;;2.65;1.33;;;21.20;99.90;;;;;;4976958;28;20291;-74
2022/08/20 03:45:38;;;;;;;1.70;1.35;;;21.20;99.90;;;;;;4976860;28;20214;-74
2022/08/20 03:48:09;;;;;;;2.22;1.33;;;21.10;99.90;;;;;;4992276;28;20283;-74
2022/08/20 03:50:35;;;;;;;2.03;1.33;;;21.20;99.90;;;;;;4993122;28;20175;-73
2022/08/20 03:53:02;;;;;;;1.20;1.00;;;21.20;99.90;;;;;;4977555;28;20203;-74
2022/08/20 03:55:31;;;;;;;1.58;1.20;;;21.20;99.90;;;;;;4976813;28;20200;-74
2022/08/20 03:58:01;;;;;;;1.83;1.55;;;21.10;99.90;;;;;;4989506;28;20189;-75
2022/08/20 04:00:34;;;;;;;1.75;1.35;;;21.20;99.90;;;;;;4992904;28;20199;-75
2022/08/20 04:03:07;;;;;;;1.88;1.52;;;21.10;99.90;;;;;;4993309;28;20266;-74
2022/08/20 04:05:33;;;;;;;1.88;1.30;;;21.10;99.90;;;;;;4989467;28;20239;-75
2022/08/20 04:08:02;;;;;;;1.77;1.38;;;21.10;99.90;;;;;;4976713;28;20216;-74
2022/08/20 04:10:28;;;;;;;1.98;1.35;;;21.10;99.90;;;;;;4975266;28;20172;-74
2022/08/20 04:12:56;;;;;;;1.48;1.38;;;21.10;99.90;;;;;;4963682;28;20342;-75
2022/08/20 04:15:26;;;;;;;2.08;1.20;;;21.10;99.90;;;;;;4991832;28;20200;-75
2022/08/20 04:17:52;;;;;;;1.85;1.48;;;21.10;99.90;;;;;;4992336;28;20176;-75
2022/08/20 04:20:24;;;;;;;2.20;1.50;;;21.10;99.90;;;;;;4978472;28;20190;-75
2022/08/20 04:22:52;;;;;;;2.70;1.50;;;21.00;99.90;;;;;;4982288;28;20183;-74
2022/08/20 04:25:18;;;;;;;1.42;1.27;;;21.00;99.90;;;;;;4974483;28;20236;-75
2022/08/20 04:27:45;;;;;;;1.95;1.30;;;21.00;99.90;;;;;;4988801;28;20291;-74
2022/08/20 04:30:15;;;;;;;1.65;1.50;;;21.00;99.90;;;;;;4964274;28;20184;-74
2022/08/20 04:32:41;;;;;;;1.55;1.30;;;21.00;99.90;;;;;;4987912;28;20247;-74
2022/08/20 04:35:10;;;;;;;2.22;1.60;;;21.00;99.90;;;;;;4973999;28;20196;-74
2022/08/20 04:37:38;;;;;;;1.50;1.30;;;21.00;99.90;;;;;;4983955;28;20187;-73
2022/08/20 04:42:56;;;;;;;2.22;1.67;;;21.00;99.90;;;;;;4967383;28;20182;-75
2022/08/20 04:45:23;;;;;;;1.90;1.63;;;21.00;99.90;;;;;;4992806;28;20196;-74
2022/08/20 04:47:49;;;;;;;2.40;1.73;;;21.10;99.90;;;;;;4986655;28;20187;-74
2022/08/20 04:50:19;;;;;;;2.22;1.67;;;21.10;99.90;;;;;;4991659;28;20248;-74
2022/08/20 04:52:46;;;;;;;1.90;1.70;;;21.10;99.90;;;;;;4978290;28;20176;-74
2022/08/20 04:55:16;;;;;;;2.10;1.90;;;21.10;99.90;;;;;;4990278;28;20222;-73
2022/08/20 04:57:42;;;;;;;2.40;2.13;;;21.10;99.90;;;;;;4977532;28;20184;-73
2022/08/20 05:00:14;;;;;;;3.20;2.25;;;21.10;99.90;;;;;;4995712;28;21587;-73
2022/08/20 05:02:44;;;;;;;3.88;3.20;;;21.20;99.90;;;;;;4993315;28;20224;-74
2022/08/20 05:05:13;;;;;;;4.72;3.60;;;21.20;99.90;;;;;;4976056;28;20307;-73
2022/08/20 05:07:42;;;;;;;3.20;2.72;;;21.20;99.90;;;;;;4974415;28;20203;-73
2022/08/20 05:10:09;;;;;;;3.33;2.90;;;21.20;99.90;;;;;;4976544;28;20176;-74
2022/08/20 05:12:37;;;;;;;3.00;2.70;;;21.30;99.90;;;;;;4977755;28;20202;-74
2022/08/20 05:15:04;;;;;;;2.90;2.67;;;21.20;99.90;;;;;;4984616;28;20222;-74
2022/08/20 05:17:32;;;;;;;4.18;2.70;;;21.30;99.90;;;;;;4973844;28;20172;-74
2022/08/20 05:20:00;;;;;;;3.03;2.75;;;21.30;99.90;;;;;;4981126;28;20180;-73
2022/08/20 05:22:27;;;;;;;3.90;2.50;;;21.30;99.90;;;;;;4975063;28;20210;-74
2022/08/20 05:24:58;;;;;;;2.92;2.47;;;21.30;99.90;;;;;;4975518;28;20168;-74
2022/08/20 05:27:25;;;;;;;3.33;2.42;;;21.30;99.90;;;;;;4975909;28;20211;-74
2022/08/20 05:30:23;;;;;;;3.17;2.67;;;21.30;99.90;;;;;;4989032;28;20200;-74
2022/08/20 05:32:53;;;;;;;3.42;3.13;;;21.30;99.90;;;;;;4978488;28;20206;-74
2022/08/20 05:35:22;;;;;;;3.70;3.38;;;21.40;99.90;;;;;;4976179;28;20188;-74
2022/08/20 05:37:50;;;;;;;3.90;3.50;;;21.40;99.90;;;;;;4992509;28;20187;-75
2022/08/20 05:40:16;;;;;;;3.95;3.53;;;21.40;99.90;;;;;;4992464;28;20190;-73
2022/08/20 05:42:46;;;;;;;3.85;3.55;;;21.40;99.90;;;;;;4971013;28;20203;-73
2022/08/20 05:45:12;;;;;;;4.32;3.83;;;21.40;99.90;;;;;;4976885;28;20211;-73
2022/08/20 05:47:39;;;;;;;4.72;4.25;;;21.50;99.90;;;;;;4995148;28;20244;-74
2022/08/20 05:50:08;;;;;;;5.43;4.60;;;21.50;99.90;;;;;;4975617;28;20242;-74
2022/08/20 05:52:37;;;;;;;5.15;4.38;;;21.50;99.90;;;;;;4989356;28;20187;-76
2022/08/20 05:55:05;;;;;;;4.68;4.18;;;21.50;99.90;;;;;;4988212;28;20255;-75
2022/08/20 05:57:31;;;;;;;4.43;4.03;;;21.50;99.90;;;;;;4974344;28;20319;-75
2022/08/20 06:00:01;;;;;;;4.07;3.67;;;21.50;99.90;;;;;;4975994;28;20210;-75
2022/08/20 06:05:14;;;;;;;5.07;4.05;;;21.50;99.90;;;;;;4975896;28;20214;-76
2022/08/20 06:07:40;;;;;;;5.53;4.28;;;21.50;99.90;;;;;;4970972;28;20212;-75
2022/08/20 06:10:07;;;;;;;4.15;3.75;;;21.50;99.90;;;;;;4971804;28;20255;-75
2022/08/20 06:12:36;;;;;;;3.85;3.45;;;21.50;99.90;;;;;;4989446;28;20207;-76
2022/08/20 06:15:05;;;;;;;3.75;3.45;;;21.50;99.90;;;;;;4987765;28;20196;-75
2022/08/20 06:17:32;;;;;;;4.05;3.30;;;21.50;99.90;;;;;;4973142;28;20189;-76
2022/08/20 06:20:05;;;;;;;4.70;4.20;;;21.50;99.90;;;;;;4976741;28;20176;-75
2022/08/20 06:22:34;;;;;;;5.28;4.53;;;21.50;99.90;;;;;;4971657;28;20172;-74
2022/08/20 06:25:00;;;;;;;4.25;3.78;;;21.50;99.90;;;;;;4975030;28;20187;-74
2022/08/20 06:27:26;;;;;;;5.05;4.55;;;21.40;99.90;;;;;;4974608;28;20270;-76
2022/08/20 06:29:55;;;;;;;5.72;5.13;;;21.40;99.90;;;;;;4974378;28;20208;-76
2022/08/20 06:32:25;;;;;;;5.40;4.82;;;21.40;99.90;;;;;;4974673;28;20172;-75
2022/08/20 06:34:51;;;;;;;7.88;5.30;;;21.40;99.90;;;;;;4988469;28;20188;-76
2022/08/20 06:37:28;;;;;;;6.25;4.85;;;21.30;99.90;;;;;;4990862;28;20181;-76
2022/08/20 06:39:54;;;;;;;5.65;5.07;;;21.30;99.90;;;;;;4992333;28;20195;-76
2022/08/20 06:42:23;;;;;;;5.25;4.75;;;21.30;99.90;;;;;;4979400;28;20195;-75
2022/08/20 06:44:51;;;;;;;6.53;5.10;;;21.30;99.90;;;;;;4977772;28;20194;-76
2022/08/20 06:47:19;;;;;;;5.72;5.13;;;21.30;99.90;;;;;;4986979;28;20226;-76
2022/08/20 06:49:46;;;;;;;6.07;5.45;;;21.30;99.90;;;;;;4973993;28;20213;-77
2022/08/20 06:52:14;;;;;;;5.57;4.50;;;21.30;99.90;;;;;;4971434;28;20235;-74
2022/08/20 06:54:42;;;;;;;5.30;4.80;;;21.30;99.90;;;;;;4975558;28;20188;-72
2022/08/20 06:57:08;;;;;;;6.65;5.28;;;21.30;99.90;;;;;;4990367;28;20176;-74
2022/08/20 06:59:37;;;;;;;5.65;5.03;;;21.30;99.90;;;;;;4991501;28;20184;-73
2022/08/20 07:02:03;;;;;;;5.80;5.30;;;21.30;99.90;;;;;;4998057;28;20186;-74
2022/08/20 07:04:29;;;;;;;6.05;4.88;;;21.40;99.90;;;;;;4980546;28;20290;-73
2022/08/20 07:06:56;;;;;;;5.35;4.85;;;21.40;99.90;;;;;;4993088;28;20290;-74
2022/08/20 07:09:26;;;;;;;5.10;4.57;;;21.40;99.90;;;;;;4986708;28;20173;-74
2022/08/20 07:11:51;;;;;;;5.97;4.97;;;21.40;99.90;;;;;;4988827;28;20196;-73
2022/08/20 07:14:18;;;;;;;5.20;4.53;;;21.50;99.90;;;;;;4969641;28;20188;-73
2022/08/20 07:16:56;;;;;;;4.82;4.32;;;21.50;99.90;;;;;;4989297;28;20271;-73
2022/08/20 07:19:22;;;;;;;6.00;4.95;;;21.60;99.90;;;;;;4980634;28;20179;-74
2022/08/20 07:21:50;;;;;;;6.43;5.20;;;21.70;99.90;;;;;;4987264;28;20219;-74
2022/08/20 07:24:15;;;;;;;5.47;4.30;;;21.70;99.90;;;;;;4974191;28;20176;-73
2022/08/20 07:26:41;;;;;;;4.78;4.20;;;21.70;99.90;;;;;;4975480;28;20207;-74
2022/08/20 07:29:09;;;;;;;3.90;3.60;;;21.70;99.90;;;;;;4975162;28;20192;-74
2022/08/20 07:34:22;;;;;;;4.10;3.70;;;21.90;99.90;;;;;;4975659;28;20209;-74
2022/08/20 07:36:47;;;;;;;3.90;3.17;;;21.80;99.90;;;;;;4989846;28;20307;-74
2022/08/20 07:39:13;;;;;;;4.53;4.13;;;21.90;99.90;;;;;;4987053;28;20258;-73
2022/08/20 07:41:41;;;;;;;4.22;3.65;;;21.90;99.90;;;;;;4975440;28;20232;-73
2022/08/20 07:44:07;;;;;;;4.72;4.25;;;21.90;99.90;;;;;;4994807;28;20207;-72
2022/08/20 07:46:33;;;;;;;5.38;4.43;;;21.90;99.90;;;;;;4975790;28;20207;-72
2022/08/20 07:48:59;;;;;;;4.40;3.97;;;22.00;99.90;;;;;;4977509;28;20176;-72
2022/08/20 07:51:25;;;;;;;6.03;5.45;;;22.00;99.90;;;;;;4991307;28;20180;-73
2022/08/20 07:53:51;;;;;;;6.50;5.80;;;22.00;99.90;;;;;;4976905;28;20266;-72
2022/08/20 07:56:22;;;;;;;7.07;6.38;;;22.00;99.90;;;;;;4974656;28;20188;-73
2022/08/20 07:58:54;;;;;;;5.65;5.07;;;22.10;99.90;;;;;;4987708;28;20235;-73
2022/08/20 08:01:24;;;;;;;5.63;5.07;;;22.10;99.90;;;;;;4974362;28;20212;-73
2022/08/20 08:03:50;;;;;;;4.82;4.35;;;22.10;99.90;;;;;;4991151;28;20187;-73
2022/08/20 08:06:22;;;;;;;5.90;4.35;;;22.10;99.90;;;;;;4965574;28;20279;-73
2022/08/20 08:08:47;;;;;;;5.82;5.22;;;22.10;99.90;;;;;;4966985;28;20172;-73
2022/08/20 08:11:13;;;;;;;4.05;3.55;;;22.10;99.90;;;;;;4971864;28;20180;-72
2022/08/20 08:13:40;;;;;;;3.95;3.65;;;22.10;99.90;;;;;;4976719;28;20200;-72
2022/08/20 08:16:08;;;;;;;4.75;4.20;;;22.10;99.90;;;;;;4981020;28;20192;-73
2022/08/20 08:18:40;;;;;;;4.55;4.03;;;22.10;99.90;;;;;;4975621;28;20180;-73
2022/08/20 08:21:07;;;;;;;4.43;4.03;;;22.10;99.90;;;;;;4978462;28;20207;-74
2022/08/20 08:23:33;;;;;;;5.55;4.72;;;22.10;99.90;;;;;;4971977;28;20191;-73
2022/08/20 08:26:02;;;;;;;6.47;5.45;;;22.10;99.90;;;;;;4973033;28;20215;-74
2022/08/20 08:28:29;;;;;;;5.32;4.72;;;22.10;99.90;;;;;;4975612;28;20180;-74
2022/08/20 08:30:56;;;;;;;5.68;5.03;;;22.10;99.90;;;;;;4973988;28;20177;-73
2022/08/20 08:33:29;;;;;;;6.45;5.85;;;22.10;99.90;;;;;;4973162;28;20207;-76
2022/08/20 08:36:02;;;;;;;4.78;4.38;;;22.10;99.90;;;;;;4978621;28;20190;-77
2022/08/20 08:38:33;;;;;;;5.30;4.57;;;22.10;99.90;;;;;;4994307;28;20203;-77
2022/08/20 08:41:17;;;;;;;5.78;5.18;;;22.20;99.90;;;;;;4985970;28;20184;-78
2022/08/20 08:43:48;;;;;;;5.43;4.93;;;22.20;99.90;;;;;;4976721;28;20206;-75
2022/08/20 08:46:21;;;;;;;5.18;4.47;;;22.20;99.90;;;;;;4976079;28;20207;-78
2022/08/20 08:48:52;;;;;;;4.80;4.38;;;22.30;99.90;;;;;;4975980;28;20203;-78
2022/08/20 08:51:25;;;;;;;4.90;4.50;;;22.30;99.90;;;;;;4975297;28;20200;-79
2022/08/20 08:53:53;;;;;;;4.97;4.53;;;22.40;99.90;;;;;;4993734;28;20177;-76
2022/08/20 08:56:25;;;;;;;4.80;4.40;;;22.40;99.90;;;;;;4988972;28;20183;-73
2022/08/20 08:58:54;;;;;;;6.05;5.45;;;22.40;99.90;;;;;;4997429;28;20215;-79
2022/08/20 09:01:24;;;;;;;6.00;5.22;;;22.40;99.90;;;;;;4976777;28;20210;-78
2022/08/20 09:03:54;;;;;;;5.85;5.32;;;22.40;99.90;;;;;;4991460;28;20232;-79
2022/08/20 09:06:23;;;;;;;6.15;5.55;;;22.50;99.90;;;;;;4997424;28;20199;-77
2022/08/20 09:08:59;;;;;;;6.78;6.00;;;22.50;99.90;;;;;;4970921;28;20179;-78
2022/08/20 09:11:28;;;;;;;5.18;4.68;;;22.60;99.90;;;;;;4975527;28;20223;-78
2022/08/20 09:13:57;;;;;;;5.30;4.75;;;22.60;99.90;;;;;;4975633;28;20175;-77
2022/08/20 09:16:27;;;;;;;4.75;4.35;;;22.60;99.90;;;;;;4966301;28;20180;-76
2022/08/20 09:18:53;;;;;;;5.05;4.63;;;22.70;99.90;;;;;;4987790;28;20180;-77
2022/08/20 09:21:19;;;;;;;6.22;5.70;;;22.80;99.90;;;;;;5000669;28;20186;-76
2022/08/20 09:23:44;;;;;;;5.40;4.57;;;22.80;99.90;;;;;;4979734;28;20291;-74
2022/08/20 09:26:13;;;;;;;6.03;4.72;;;22.90;99.90;;;;;;4975472;28;20200;-77
2022/08/20 09:28:43;;;;;;;5.95;5.28;;;23.00;99.90;;;;;;4977850;28;20180;-78
2022/08/20 09:31:09;;;;;;;4.30;3.90;;;23.00;99.90;;;;;;4974411;28;20196;-78
2022/08/20 09:33:36;;;;;;;5.18;4.40;;;23.10;99.90;;;;;;4983969;28;20176;-77
2022/08/20 09:36:02;;;;;;;4.15;3.67;;;23.10;99.90;;;;;;4993792;28;20180;-77
2022/08/20 09:38:29;;;;;;;3.55;3.22;;;23.10;99.90;;;;;;4979857;28;20266;-76
2022/08/20 09:40:56;;;;;;;5.07;3.53;;;23.20;99.90;;;;;;4989608;28;20172;-77
2022/08/20 09:43:22;;;;;;;3.53;3.22;;;23.20;99.90;;;;;;4971629;28;20219;-76
2022/08/20 09:45:48;;;;;;;3.95;3.42;;;23.30;99.90;;;;;;4978555;28;20208;-76
2022/08/20 09:48:13;;;;;;;4.40;4.00;;;23.40;99.90;;;;;;4979955;28;20176;-76
2022/08/20 09:50:45;;;;;;;3.70;3.33;;;23.40;99.90;;;;;;4978057;28;20215;-77
2022/08/20 09:53:11;;;;;;;4.78;3.72;;;23.50;99.90;;;;;;4981456;28;20235;-76
2022/08/20 09:55:46;;;;;;;3.97;3.50;;;23.60;99.90;;;;;;4981132;28;20247;-76
2022/08/20 09:58:38;;;;;;;4.22;3.40;;;23.60;99.90;;;;;;4974161;28;20202;-78
2022/08/20 10:01:13;;;;;;;4.45;4.05;;;23.70;99.90;;;;;;5000482;28;20199;-76
2022/08/20 10:03:42;;;;;;;3.80;3.50;;;23.70;99.90;;;;;;4976861;28;20214;-76
2022/08/20 10:06:13;;;;;;;3.50;2.83;;;23.70;99.90;;;;;;4976202;28;20196;-75
2022/08/20 10:08:39;;;;;;;3.92;3.50;;;23.70;99.90;;;;;;4975304;28;20323;-76
2022/08/20 10:11:04;;;;;;;3.35;3.05;;;23.70;99.90;;;;;;4979525;28;20215;-76
2022/08/20 10:13:32;;;;;;;3.88;3.47;;;23.80;99.90;;;;;;4980963;28;20266;-75
2022/08/20 10:15:58;;;;;;;5.13;3.50;;;24.00;99.90;;;;;;4993024;28;20189;-76
2022/08/20 10:18:26;;;;;;;3.55;3.25;;;24.30;99.90;;;;;;4993127;28;20204;-76
2022/08/20 10:20:52;;;;;;;4.32;3.10;;;24.70;99.90;;;;;;4983769;28;20200;-77
2022/08/20 10:23:18;;;;;;;3.47;3.08;;;25.20;99.90;;;;;;4978487;28;20210;-77
2022/08/20 10:25:43;;;;;;;3.10;2.80;;;25.50;99.90;;;;;;4993553;28;20200;-78
2022/08/20 10:28:11;;;;;;;3.90;3.20;;;25.60;99.90;;;;;;4985687;28;20287;-80
2022/08/20 10:30:37;;;;;;;5.80;3.63;;;25.70;99.90;;;;;;4998522;28;20339;-77
2022/08/20 10:33:03;;;;;;;4.20;3.60;;;25.90;99.90;;;;;;4996343;28;20188;-77
2022/08/20 10:35:28;;;;;;;3.58;3.05;;;26.10;99.90;;;;;;4998877;28;20208;-75
2022/08/20 10:37:56;;;;;;;3.88;3.10;;;26.40;99.90;;;;;;4985096;28;20195;-74
2022/08/20 10:40:22;;;;;;;4.90;3.50;;;26.50;99.90;;;;;;4982901;28;20180;-77
2022/08/20 10:42:47;;;;;;;3.80;3.05;;;26.60;99.90;;;;;;5001134;28;20198;-77
2022/08/20 10:45:15;;;;;;;3.15;2.85;;;26.50;99.90;;;;;;4995584;28;20180;-77
2022/08/20 10:47:41;;;;;;;3.83;2.92;;;26.50;99.90;;;;;;4999355;28;20187;-78
2022/08/20 10:50:10;;;;;;;3.70;3.10;;;26.50;99.90;;;;;;4983170;28;20192;-77
2022/08/20 10:52:38;;;;;;;3.67;2.72;;;26.50;99.90;;;;;;5003422;28;20168;-75
2022/08/20 10:55:04;;;;;;;4.63;2.70;;;26.50;99.90;;;;;;4979562;28;20172;-81
2022/08/20 10:57:32;;;;;;;4.50;2.88;;;26.50;99.90;;;;;;4995539;28;20226;-78
2022/08/20 11:00:01;;;;;;;3.50;2.72;;;26.40;99.90;;;;;;4984834;28;20219;-79
2022/08/20 11:02:27;;;;;;;3.17;2.47;;;26.40;99.90;;;;;;4983251;28;20214;-78
2022/08/20 11:04:56;;;;;;;2.97;2.50;;;26.40;99.90;;;;;;4979123;28;20200;-76
2022/08/20 11:07:37;;;;;;;3.38;2.40;;;26.50;99.90;;;;;;4987432;28;20204;-78
2022/08/20 11:10:05;;;;;;;2.97;1.77;;;26.50;99.90;;;;;;4974356;28;20196;-79
2022/08/20 11:12:30;;;;;;;4.18;2.22;;;26.80;99.90;;;;;;4958986;29;20200;-78
2022/08/20 11:14:58;;;;;;;3.65;2.78;;;27.10;99.90;;;;;;4971165;28;20176;-78
2022/08/20 11:17:29;;;;;;;4.35;2.50;;;27.20;99.90;;;;;;4983164;28;20278;-79
2022/08/20 11:19:59;;;;;;;3.97;2.00;;;27.20;99.90;;;;;;4981486;28;20183;-81
2022/08/20 11:22:29;;;;;;;4.78;2.13;;;27.10;99.90;;;;;;4978060;28;20184;-78
2022/08/20 11:24:55;;;;;;;4.45;2.65;;;27.10;99.90;;;;;;4991605;28;20203;-77
2022/08/20 11:27:37;;;;;;;4.20;2.30;;;27.00;99.90;;;;;;4986114;28;20343;-79
2022/08/20 11:30:05;;;;;;;2.78;1.77;;;26.90;99.90;;;;;;5003870;28;20206;-77
2022/08/20 11:32:33;;;;;;;3.45;1.85;;;26.80;99.90;;;;;;4983208;28;20183;-79
2022/08/20 11:34:58;;;;;;;3.20;1.58;;;26.90;99.90;;;;;;4975499;28;20201;-80
2022/08/20 11:37:30;;;;;;;3.25;1.48;;;27.10;99.90;;;;;;4979883;28;20199;-78
2022/08/20 11:39:58;;;;;;;4.00;1.63;;;27.20;99.90;;;;;;4999019;28;20176;-78
2022/08/20 11:42:26;;;;;;;2.20;1.52;;;27.40;99.90;;;;;;4982741;28;20228;-78
2022/08/20 11:44:51;;;;;;;2.58;1.80;;;27.60;99.90;;;;;;4983753;28;20180;-78
2022/08/20 11:47:27;;;;;;;2.35;1.85;;;27.60;99.90;;;;;;4987259;28;20226;-76
2022/08/20 11:50:02;;;;;;;2.97;1.90;;;27.70;99.90;;;;;;4983828;28;20206;-77
2022/08/20 11:52:29;;;;;;;3.88;2.00;;;27.80;99.90;;;;;;4970493;28;20235;-75
2022/08/20 11:54:58;;;;;;;4.28;2.10;;;27.80;99.90;;;;;;4987482;28;20188;-79
2022/08/20 11:57:27;;;;;;;2.20;1.48;;;27.60;99.90;;;;;;4983600;28;20180;-79
2022/08/20 11:59:55;;;;;;;4.88;1.98;;;27.40;99.90;;;;;;4986708;28;20288;-78
2022/08/20 12:02:26;;;;;;;3.47;1.88;;;27.30;99.90;;;;;;4981934;28;20208;-77
2022/08/20 12:04:54;;;;;;;5.47;2.35;;;27.10;99.90;;;;;;4982098;28;20411;-76
2022/08/20 12:07:22;;;;;;;3.42;2.30;;;27.00;99.90;;;;;;4984318;28;20192;-75
2022/08/20 12:09:48;;;;;;;2.42;1.88;;;26.80;99.90;;;;;;4984146;28;20187;-76
2022/08/20 12:12:15;;;;;;;3.08;2.10;;;26.90;99.90;;;;;;5001522;28;20187;-73
2022/08/20 12:14:43;;;;;;;4.20;2.30;;;26.90;99.90;;;;;;4975114;28;20200;-78
2022/08/20 12:17:25;;;;;;;5.10;2.53;;;27.00;99.90;;;;;;4990351;28;20243;-75
2022/08/20 12:19:56;;;;;;;4.20;2.80;;;27.00;99.90;;;;;;4972425;28;20242;-76
2022/08/20 12:22:25;;;;;;;4.72;2.85;;;27.10;99.90;;;;;;4970692;28;20200;-78
2022/08/20 12:24:51;;;;;;;3.70;2.92;;;27.10;99.90;;;;;;4989308;28;20231;-79
2022/08/20 12:27:23;;;;;;;4.28;2.55;;;27.20;99.90;;;;;;4986985;28;20223;-77
2022/08/20 12:29:52;;;;;;;3.58;2.10;;;27.30;99.90;;;;;;4975523;28;20247;-77
2022/08/20 12:32:20;;;;;;;4.55;2.78;;;27.40;99.90;;;;;;4957135;28;20223;-78
2022/08/20 12:34:46;;;;;;;4.13;2.90;;;27.50;99.90;;;;;;4987760;28;20197;-81
2022/08/20 12:37:15;;;;;;;6.18;2.50;;;27.70;99.90;;;;;;4982849;28;20184;-77
2022/08/20 12:39:42;;;;;;;4.20;2.53;;;27.80;99.90;;;;;;4998431;28;20196;-79
2022/08/20 12:42:09;;;;;;;3.83;2.17;;;27.80;99.90;;;;;;4974332;28;20176;-82
2022/08/20 12:44:36;;;;;;;3.80;2.35;;;28.00;99.90;;;;;;5001774;28;20323;-80
2022/08/20 12:47:16;;;;;;;3.00;2.10;;;28.10;99.90;;;;;;4980890;28;20201;-81
2022/08/20 12:49:47;;;;;;;5.38;2.70;;;28.20;98.90;;;;;;4972651;28;20200;-77
2022/08/20 12:52:16;;;;;;;4.03;2.20;;;28.20;98.40;;;;;;4981027;28;20188;-78
2022/08/20 12:54:42;;;;;;;3.33;2.60;;;28.30;99.40;;;;;;4974146;28;20203;-81
2022/08/20 12:57:14;;;;;;;4.70;2.85;;;28.40;98.80;;;;;;4987376;28;20176;-78
2022/08/20 12:59:40;;;;;;;7.50;2.95;;;28.50;96.40;;;;;;4985655;28;20191;-75
2022/08/20 13:02:08;;;;;;;3.05;2.70;;;28.50;96.70;;;;;;4993296;28;20180;-79
2022/08/20 13:04:33;;;;;;;4.47;2.60;;;28.50;96.60;;;;;;4989667;28;20192;-77
2022/08/20 13:07:03;;;;;;;3.95;2.33;;;28.60;96.70;;;;;;4971440;28;20207;-74